Time;durP1;ratioP1;P1;durP2;ratioP2;P2;SDS_P1;SDS_P2;PMS_P1;PMS_P2;Temp;Humidity;BMP_temperature;BMP_pressure;BME280_temperature;BME280_humidity;BME280_pressure;Samples;Min_cycle;Max_cycle;Signal;HPM_P1;HPM_P2
2023/06/24 00:00:21;;;;;;;;;;;;;;;;;;1048862;28;20011;-73
2023/06/24 00:00:52;;;;;;;;;;;;;;;;;;1049263;28;20007;-73
2023/06/24 00:01:22;;;;;;;;;;;;;;;;;;1044486;28;19913;-73
2023/06/24 00:01:52;;;;;;;;;;;;;;;;;;1044594;28;19913;-73
2023/06/24 00:02:25;;;;;;;;;;;;;;;;;;1044822;28;19917;-73
2023/06/24 00:02:57;;;;;;;;;;;;;;;;;;1044845;28;19924;-73
2023/06/24 00:03:28;;;;;;;;;;;;;;;;;;1049639;28;20016;-73
2023/06/24 00:03:58;;;;;;;;;;;;;;;;;;1049017;28;20501;-73
2023/06/24 00:04:28;;;;;;;;;;;;;;;;;;1048915;28;20290;-73
2023/06/24 00:05:00;;;;;;;;;;;;;;;;;;1048786;28;19999;-73
2023/06/24 00:05:31;;;;;;;;;;;;;;;;;;1049046;28;19991;-73
2023/06/24 00:06:03;;;;;;;;;;;;;;;;;;1049322;28;19919;-73
2023/06/24 00:06:33;;;;;;;;;;;;;;;;;;1044362;28;19920;-73
2023/06/24 00:07:04;;;;;;;;;;;;;;;;;;1044454;28;19920;-73
2023/06/24 00:07:43;;;;;;;;;;;;;;;;;;1041673;28;19920;-73
2023/06/24 00:08:13;;;;;;;;;;;;;;;;;;1043651;28;19920;-73
2023/06/24 00:08:44;;;;;;;;;;;;;;;;;;1040353;28;19913;-73
2023/06/24 00:09:15;;;;;;;;;;;;;;;;;;1040841;28;19913;-73
2023/06/24 00:09:45;;;;;;;;;;;;;;;;;;1044557;28;20039;-73
2023/06/24 00:10:15;;;;;;;;;;;;;;;;;;1044016;28;19913;-73
2023/06/24 00:10:46;;;;;;;;;;;;;;;;;;1044850;28;20386;-73
2023/06/24 00:11:16;;;;;;;;;;;;;;;;;;1042239;28;20486;-73
2023/06/24 00:11:47;;;;;;;;;;;;;;;;;;1042821;28;20370;-73
2023/06/24 00:12:19;;;;;;;;;;;;;;;;;;1042800;28;20423;-73
2023/06/24 00:12:49;;;;;;;;;;;;;;;;;;1044604;28;19917;-73
2023/06/24 00:13:19;;;;;;;;;;;;;;;;;;1044753;28;19916;-73
2023/06/24 00:13:49;;;;;;;;;;;;;;;;;;1042664;28;19968;-73
2023/06/24 00:14:21;;;;;;;;;;;;;;;;;;1042552;28;19913;-73
2023/06/24 00:14:51;;;;;;;;;;;;;;;;;;1042088;28;19965;-73
2023/06/24 00:15:21;;;;;;;;;;;;;;;;;;1045405;28;20521;-73
2023/06/24 00:15:51;;;;;;;;;;;;;;;;;;1044310;28;19948;-73
2023/06/24 00:16:26;;;;;;;;;;;;;;;;;;1044566;28;20007;-73
2023/06/24 00:16:57;;;;;;;;;;;;;;;;;;1044349;28;19967;-73
2023/06/24 00:17:28;;;;;;;;;;;;;;;;;;1042767;28;19913;-73
2023/06/24 00:18:05;;;;;;;;;;;;;;;;;;1045187;28;20285;-73
2023/06/24 00:18:36;;;;;;;;;;;;;;;;;;1042334;28;20007;-73
2023/06/24 00:19:08;;;;;;;;;;;;;;;;;;1045520;28;19913;-73
2023/06/24 00:19:38;;;;;;;;;;;;;;;;;;1047747;28;19974;-73
2023/06/24 00:20:09;;;;;;;;;;;;;;;;;;1049063;28;19921;-73
2023/06/24 00:20:43;;;;;;;;;;;;;;;;;;1044540;28;20396;-73
2023/06/24 00:21:13;;;;;;;;;;;;;;;;;;1044502;28;20354;-73
2023/06/24 00:21:44;;;;;;;;;;;;;;;;;;1044420;28;19960;-73
2023/06/24 00:22:14;;;;;;;;;;;;;;;;;;1045070;28;21226;-73
2023/06/24 00:22:48;;;;;;;;;;;;;;;;;;1049405;28;19918;-73
2023/06/24 00:23:18;;;;;;;;;;;;;;;;;;1048951;28;20015;-73
2023/06/24 00:23:49;;;;;;;;;;;;;;;;;;1049056;28;19918;-73
2023/06/24 00:24:19;;;;;;;;;;;;;;;;;;1048366;28;20393;-73
2023/06/24 00:24:50;;;;;;;;;;;;;;;;;;1047982;28;19920;-73
2023/06/24 00:25:20;;;;;;;;;;;;;;;;;;1048598;28;19920;-73
2023/06/24 00:25:50;;;;;;;;;;;;;;;;;;1044310;28;19974;-73
2023/06/24 00:26:20;;;;;;;;;;;;;;;;;;1044579;28;20360;-73
2023/06/24 00:26:51;;;;;;;;;;;;;;;;;;1042467;28;19917;-73
2023/06/24 00:27:21;;;;;;;;;;;;;;;;;;1043356;28;19913;-73
2023/06/24 00:27:51;;;;;;;;;;;;;;;;;;1044435;28;19999;-73
2023/06/24 00:28:22;;;;;;;;;;;;;;;;;;1044495;28;19960;-73
2023/06/24 00:28:52;;;;;;;;;;;;;;;;;;1048056;28;20005;-73
2023/06/24 00:29:22;;;;;;;;;;;;;;;;;;1049483;28;19931;-73
2023/06/24 00:29:52;;;;;;;;;;;;;;;;;;1048957;28;19916;-73
2023/06/24 00:30:23;;;;;;;;;;;;;;;;;;1049131;28;19916;-73
2023/06/24 00:30:53;;;;;;;;;;;;;;;;;;1048584;28;19919;-73
2023/06/24 00:31:23;;;;;;;;;;;;;;;;;;1044651;28;19913;-73
2023/06/24 00:31:54;;;;;;;;;;;;;;;;;;1044959;28;19962;-73
2023/06/24 00:32:24;;;;;;;;;;;;;;;;;;1042673;28;19912;-73
2023/06/24 00:32:54;;;;;;;;;;;;;;;;;;1042154;28;19917;-73
2023/06/24 00:33:24;;;;;;;;;;;;;;;;;;1044562;28;19923;-73
2023/06/24 00:33:54;;;;;;;;;;;;;;;;;;1044522;28;20011;-73
2023/06/24 00:34:25;;;;;;;;;;;;;;;;;;1049219;28;20501;-73
2023/06/24 00:34:59;;;;;;;;;;;;;;;;;;1044205;28;19913;-73
2023/06/24 00:35:30;;;;;;;;;;;;;;;;;;1044520;28;19912;-73
2023/06/24 00:36:00;;;;;;;;;;;;;;;;;;1042898;28;19913;-74
2023/06/24 00:36:31;;;;;;;;;;;;;;;;;;1042617;28;19920;-73
2023/06/24 00:37:02;;;;;;;;;;;;;;;;;;1044355;28;20019;-73
2023/06/24 00:37:32;;;;;;;;;;;;;;;;;;1040518;28;20567;-73
2023/06/24 00:38:03;;;;;;;;;;;;;;;;;;1039458;28;20024;-73
2023/06/24 00:38:33;;;;;;;;;;;;;;;;;;1044399;28;20323;-73
2023/06/24 00:39:03;;;;;;;;;;;;;;;;;;1044974;28;19971;-73
2023/06/24 00:39:33;;;;;;;;;;;;;;;;;;1048916;28;19948;-73
2023/06/24 00:40:04;;;;;;;;;;;;;;;;;;1043999;28;20013;-73
2023/06/24 00:40:35;;;;;;;;;;;;;;;;;;1044378;28;19948;-73
2023/06/24 00:41:05;;;;;;;;;;;;;;;;;;1041835;28;20422;-73
2023/06/24 00:41:36;;;;;;;;;;;;;;;;;;1042665;28;19913;-73
2023/06/24 00:42:06;;;;;;;;;;;;;;;;;;1044534;28;20288;-73
2023/06/24 00:42:36;;;;;;;;;;;;;;;;;;1040233;28;20376;-73
2023/06/24 00:43:07;;;;;;;;;;;;;;;;;;1044492;28;20351;-74
2023/06/24 00:43:38;;;;;;;;;;;;;;;;;;1044453;28;20427;-73
2023/06/24 00:44:08;;;;;;;;;;;;;;;;;;1045098;28;20007;-73
2023/06/24 00:44:39;;;;;;;;;;;;;;;;;;1044193;28;19913;-73
2023/06/24 00:45:09;;;;;;;;;;;;;;;;;;1044538;28;19912;-73
2023/06/24 00:45:40;;;;;;;;;;;;;;;;;;1044394;28;19940;-73
2023/06/24 00:46:10;;;;;;;;;;;;;;;;;;1043281;28;20015;-73
2023/06/24 00:46:40;;;;;;;;;;;;;;;;;;1044253;28;19913;-73
2023/06/24 00:47:11;;;;;;;;;;;;;;;;;;1040314;28;19955;-73
2023/06/24 00:47:41;;;;;;;;;;;;;;;;;;1040340;28;19921;-73
2023/06/24 00:48:11;;;;;;;;;;;;;;;;;;1044660;28;19913;-73
2023/06/24 00:48:41;;;;;;;;;;;;;;;;;;1044374;28;19913;-74
2023/06/24 00:49:15;;;;;;;;;;;;;;;;;;1048794;28;19939;-74
2023/06/24 00:49:45;;;;;;;;;;;;;;;;;;1047958;28;19974;-73
2023/06/24 00:50:15;;;;;;;;;;;;;;;;;;1044442;28;19983;-73
2023/06/24 00:50:46;;;;;;;;;;;;;;;;;;1042881;28;19919;-73
2023/06/24 00:51:16;;;;;;;;;;;;;;;;;;1042415;28;19962;-73
2023/06/24 00:51:50;;;;;;;;;;;;;;;;;;1041954;28;20039;-73
2023/06/24 00:52:20;;;;;;;;;;;;;;;;;;1044518;28;19935;-73
2023/06/24 00:52:50;;;;;;;;;;;;;;;;;;1044305;28;19913;-73
2023/06/24 00:53:24;;;;;;;;;;;;;;;;;;1044509;28;19915;-73
2023/06/24 00:53:54;;;;;;;;;;;;;;;;;;1047764;28;19912;-73
2023/06/24 00:54:30;;;;;;;;;;;;;;;;;;1048940;28;19913;-73
2023/06/24 00:55:02;;;;;;;;;;;;;;;;;;1048306;28;19912;-73
2023/06/24 00:55:32;;;;;;;;;;;;;;;;;;1045147;28;19920;-73
2023/06/24 00:56:03;;;;;;;;;;;;;;;;;;1041484;28;19920;-73
2023/06/24 00:56:33;;;;;;;;;;;;;;;;;;1042578;28;19967;-73
2023/06/24 00:57:03;;;;;;;;;;;;;;;;;;1042476;28;19913;-73
2023/06/24 00:57:33;;;;;;;;;;;;;;;;;;1044409;28;19913;-73
2023/06/24 00:58:04;;;;;;;;;;;;;;;;;;1044456;28;20015;-73
2023/06/24 00:58:34;;;;;;;;;;;;;;;;;;1037713;28;19917;-73
2023/06/24 00:59:04;;;;;;;;;;;;;;;;;;1040183;28;20396;-73
2023/06/24 00:59:34;;;;;;;;;;;;;;;;;;1044333;28;19912;-73
2023/06/24 01:00:09;;;;;;;;;;;;;;;;;;1044368;28;19936;-73
2023/06/24 01:00:40;;;;;;;;;;;;;;;;;;1048423;28;19919;-73
2023/06/24 01:01:11;;;;;;;;;;;;;;;;;;1048804;28;20426;-73
2023/06/24 01:01:41;;;;;;;;;;;;;;;;;;1048662;28;20011;-73
2023/06/24 01:02:11;;;;;;;;;;;;;;;;;;1044533;28;19913;-74
2023/06/24 01:02:42;;;;;;;;;;;;;;;;;;1044618;28;19952;-73
2023/06/24 01:03:16;;;;;;;;;;;;;;;;;;1044294;28;19916;-73
2023/06/24 01:03:46;;;;;;;;;;;;;;;;;;1044986;28;19916;-73
2023/06/24 01:04:16;;;;;;;;;;;;;;;;;;1044288;28;20099;-73
2023/06/24 01:04:46;;;;;;;;;;;;;;;;;;1044052;28;19920;-73
2023/06/24 01:05:17;;;;;;;;;;;;;;;;;;1044588;28;20291;-73
2023/06/24 01:05:47;;;;;;;;;;;;;;;;;;1044343;28;19955;-73
2023/06/24 01:06:17;;;;;;;;;;;;;;;;;;1048862;28;20015;-73
2023/06/24 01:06:47;;;;;;;;;;;;;;;;;;1048625;28;19999;-73
2023/06/24 01:07:18;;;;;;;;;;;;;;;;;;1048920;28;19924;-73
2023/06/24 01:07:54;;;;;;;;;;;;;;;;;;1049233;28;19923;-73
2023/06/24 01:08:24;;;;;;;;;;;;;;;;;;1043396;28;19920;-74
2023/06/24 01:08:56;;;;;;;;;;;;;;;;;;1044183;28;20007;-73
2023/06/24 01:09:26;;;;;;;;;;;;;;;;;;1044578;28;19912;-73
2023/06/24 01:09:56;;;;;;;;;;;;;;;;;;1044562;28;19912;-73
2023/06/24 01:10:26;;;;;;;;;;;;;;;;;;1048009;28;19912;-73
2023/06/24 01:10:57;;;;;;;;;;;;;;;;;;1048541;28;19961;-73
2023/06/24 01:11:27;;;;;;;;;;;;;;;;;;1048904;28;19920;-73
2023/06/24 01:11:57;;;;;;;;;;;;;;;;;;1048642;28;19995;-73
2023/06/24 01:12:27;;;;;;;;;;;;;;;;;;1048742;28;20647;-73
2023/06/24 01:12:58;;;;;;;;;;;;;;;;;;1049238;28;19916;-73
2023/06/24 01:13:28;;;;;;;;;;;;;;;;;;1048896;28;19917;-73
2023/06/24 01:13:58;;;;;;;;;;;;;;;;;;1044253;28;19917;-74
2023/06/24 01:14:28;;;;;;;;;;;;;;;;;;1044512;28;20376;-73
2023/06/24 01:14:58;;;;;;;;;;;;;;;;;;1042609;28;20356;-73
2023/06/24 01:15:29;;;;;;;;;;;;;;;;;;1043894;28;19917;-73
2023/06/24 01:15:59;;;;;;;;;;;;;;;;;;1043120;28;19917;-73
2023/06/24 01:16:29;;;;;;;;;;;;;;;;;;1044130;28;19913;-73
2023/06/24 01:16:59;;;;;;;;;;;;;;;;;;1044022;28;20054;-74
2023/06/24 01:17:30;;;;;;;;;;;;;;;;;;1044469;28;20046;-74
2023/06/24 01:18:00;;;;;;;;;;;;;;;;;;1047701;28;19913;-74
2023/06/24 01:18:30;;;;;;;;;;;;;;;;;;1048697;28;19924;-74
2023/06/24 01:19:00;;;;;;;;;;;;;;;;;;1048648;28;20364;-74
2023/06/24 01:19:31;;;;;;;;;;;;;;;;;;1049060;28;20372;-74
2023/06/24 01:20:04;;;;;;;;;;;;;;;;;;1048781;28;19966;-73
2023/06/24 01:20:35;;;;;;;;;;;;;;;;;;1048713;28;19998;-73
2023/06/24 01:21:05;;;;;;;;;;;;;;;;;;1048630;28;20030;-73
2023/06/24 01:21:36;;;;;;;;;;;;;;;;;;1048435;28;20356;-73
2023/06/24 01:22:11;;;;;;;;;;;;;;;;;;1048613;28;19916;-74
2023/06/24 01:22:41;;;;;;;;;;;;;;;;;;1047465;28;19919;-74
2023/06/24 01:23:11;;;;;;;;;;;;;;;;;;1048671;28;20010;-74
2023/06/24 01:23:42;;;;;;;;;;;;;;;;;;1046995;28;19999;-74
2023/06/24 01:24:12;;;;;;;;;;;;;;;;;;1047519;28;19934;-73
2023/06/24 01:24:42;;;;;;;;;;;;;;;;;;1046837;28;20322;-73
2023/06/24 01:25:12;;;;;;;;;;;;;;;;;;1047631;28;19923;-76
2023/06/24 01:25:43;;;;;;;;;;;;;;;;;;1046909;28;19947;-76
2023/06/24 01:26:13;;;;;;;;;;;;;;;;;;1047093;28;20395;-75
2023/06/24 01:26:43;;;;;;;;;;;;;;;;;;1048056;28;20089;-77
2023/06/24 01:27:13;;;;;;;;;;;;;;;;;;1046205;28;19917;-75
2023/06/24 01:27:44;;;;;;;;;;;;;;;;;;1048460;28;20582;-74
2023/06/24 01:28:14;;;;;;;;;;;;;;;;;;1048408;28;20325;-74
2023/06/24 01:28:45;;;;;;;;;;;;;;;;;;1046921;28;19997;-74
2023/06/24 01:29:15;;;;;;;;;;;;;;;;;;1048501;28;19955;-74
2023/06/24 01:29:46;;;;;;;;;;;;;;;;;;1043505;28;19924;-73
2023/06/24 01:30:17;;;;;;;;;;;;;;;;;;1045123;28;19913;-73
2023/06/24 01:30:47;;;;;;;;;;;;;;;;;;1043692;28;20369;-74
2023/06/24 01:31:18;;;;;;;;;;;;;;;;;;1044404;28;19951;-73
2023/06/24 01:31:51;;;;;;;;;;;;;;;;;;1048630;28;19959;-73
2023/06/24 01:32:21;;;;;;;;;;;;;;;;;;1047817;28;19913;-75
2023/06/24 01:32:51;;;;;;;;;;;;;;;;;;1043649;28;20573;-74
2023/06/24 01:33:21;;;;;;;;;;;;;;;;;;1044788;28;19913;-75
2023/06/24 01:33:52;;;;;;;;;;;;;;;;;;1043069;28;19939;-74
2023/06/24 01:34:22;;;;;;;;;;;;;;;;;;1044321;28;19913;-74
2023/06/24 01:34:52;;;;;;;;;;;;;;;;;;1048425;28;19912;-74
2023/06/24 01:35:22;;;;;;;;;;;;;;;;;;1043982;28;20042;-73
2023/06/24 01:35:53;;;;;;;;;;;;;;;;;;1044828;28;19913;-74
2023/06/24 01:36:23;;;;;;;;;;;;;;;;;;1044389;28;20007;-75
2023/06/24 01:36:53;;;;;;;;;;;;;;;;;;1042019;28;19949;-75
2023/06/24 01:37:24;;;;;;;;;;;;;;;;;;1044205;28;19917;-75
2023/06/24 01:37:54;;;;;;;;;;;;;;;;;;1038719;28;19920;-75
2023/06/24 01:38:24;;;;;;;;;;;;;;;;;;1040110;28;20386;-75
2023/06/24 01:38:54;;;;;;;;;;;;;;;;;;1044780;28;19944;-74
2023/06/24 01:39:25;;;;;;;;;;;;;;;;;;1044175;28;19958;-74
2023/06/24 01:39:55;;;;;;;;;;;;;;;;;;1043791;28;19917;-74
2023/06/24 01:40:25;;;;;;;;;;;;;;;;;;1044190;28;20392;-74
2023/06/24 01:40:56;;;;;;;;;;;;;;;;;;1043783;28;19917;-75
2023/06/24 01:41:26;;;;;;;;;;;;;;;;;;1040825;28;19920;-75
2023/06/24 01:41:56;;;;;;;;;;;;;;;;;;1038902;28;20007;-75
2023/06/24 01:42:26;;;;;;;;;;;;;;;;;;1039994;28;20531;-75
2023/06/24 01:42:57;;;;;;;;;;;;;;;;;;1040283;28;20374;-74
2023/06/24 01:43:27;;;;;;;;;;;;;;;;;;1043909;28;19913;-77
2023/06/24 01:43:57;;;;;;;;;;;;;;;;;;1040180;28;19913;-76
2023/06/24 01:44:28;;;;;;;;;;;;;;;;;;1036390;28;19914;-76
2023/06/24 01:44:58;;;;;;;;;;;;;;;;;;1038371;28;19917;-76
2023/06/24 01:45:29;;;;;;;;;;;;;;;;;;1039969;28;19913;-78
2023/06/24 01:46:01;;;;;;;;;;;;;;;;;;1040411;28;19921;-81
2023/06/24 01:46:32;;;;;;;;;;;;;;;;;;1042924;28;19999;-76
2023/06/24 01:47:02;;;;;;;;;;;;;;;;;;1044469;28;19937;-78
2023/06/24 01:47:32;;;;;;;;;;;;;;;;;;1044003;28;19960;-75
2023/06/24 01:48:03;;;;;;;;;;;;;;;;;;1048396;28;19943;-75
2023/06/24 01:48:33;;;;;;;;;;;;;;;;;;1048223;28;20364;-74
2023/06/24 01:49:03;;;;;;;;;;;;;;;;;;1048443;28;19912;-74
2023/06/24 01:49:33;;;;;;;;;;;;;;;;;;1048513;28;19917;-76
2023/06/24 01:50:04;;;;;;;;;;;;;;;;;;1049245;28;19923;-75
2023/06/24 01:50:34;;;;;;;;;;;;;;;;;;1047362;28;19912;-77
2023/06/24 01:51:04;;;;;;;;;;;;;;;;;;1048484;28;19936;-74
2023/06/24 01:51:34;;;;;;;;;;;;;;;;;;1048629;28;19955;-76
2023/06/24 01:52:05;;;;;;;;;;;;;;;;;;1043992;28;19913;-74
2023/06/24 01:52:35;;;;;;;;;;;;;;;;;;1044043;28;20022;-72
2023/06/24 01:53:05;;;;;;;;;;;;;;;;;;1044015;28;19917;-74
2023/06/24 01:53:35;;;;;;;;;;;;;;;;;;1044008;28;19917;-74
2023/06/24 01:54:06;;;;;;;;;;;;;;;;;;1048624;28;19912;-74
2023/06/24 01:54:36;;;;;;;;;;;;;;;;;;1047322;28;19913;-74
2023/06/24 01:55:06;;;;;;;;;;;;;;;;;;1043355;28;19955;-74
2023/06/24 01:55:36;;;;;;;;;;;;;;;;;;1044427;28;19917;-75
2023/06/24 01:56:07;;;;;;;;;;;;;;;;;;1044174;28;19921;-75
2023/06/24 01:56:37;;;;;;;;;;;;;;;;;;1043954;28;19913;-74
2023/06/24 01:57:07;;;;;;;;;;;;;;;;;;1048563;28;20014;-75
2023/06/24 01:57:37;;;;;;;;;;;;;;;;;;1048430;28;20002;-74
2023/06/24 01:58:07;;;;;;;;;;;;;;;;;;1048450;28;19927;-74
2023/06/24 01:58:38;;;;;;;;;;;;;;;;;;1049228;28;19916;-74
2023/06/24 01:59:08;;;;;;;;;;;;;;;;;;1048432;28;20442;-74
2023/06/24 01:59:38;;;;;;;;;;;;;;;;;;1048451;28;20018;-74
2023/06/24 02:00:09;;;;;;;;;;;;;;;;;;1048631;28;20023;-74
2023/06/24 02:00:39;;;;;;;;;;;;;;;;;;1048346;28;19955;-74
2023/06/24 02:01:09;;;;;;;;;;;;;;;;;;1048727;28;19964;-75
2023/06/24 02:01:40;;;;;;;;;;;;;;;;;;1049133;28;19919;-75
2023/06/24 02:02:10;;;;;;;;;;;;;;;;;;1043204;28;20343;-74
2023/06/24 02:02:40;;;;;;;;;;;;;;;;;;1038959;28;20925;-74
2023/06/24 02:03:10;;;;;;;;;;;;;;;;;;1039679;28;19967;-74
2023/06/24 02:03:41;;;;;;;;;;;;;;;;;;1041359;28;20036;-75
2023/06/24 02:04:11;;;;;;;;;;;;;;;;;;1044627;28;19960;-75
2023/06/24 02:04:41;;;;;;;;;;;;;;;;;;1043756;28;20418;-75
2023/06/24 02:05:11;;;;;;;;;;;;;;;;;;1043890;28;19913;-74
2023/06/24 02:05:42;;;;;;;;;;;;;;;;;;1043939;28;19913;-74
2023/06/24 02:06:12;;;;;;;;;;;;;;;;;;1048335;28;19920;-74
2023/06/24 02:06:42;;;;;;;;;;;;;;;;;;1042575;28;20054;-74
2023/06/24 02:07:13;;;;;;;;;;;;;;;;;;1044559;28;19913;-74
2023/06/24 02:07:43;;;;;;;;;;;;;;;;;;1041755;28;19914;-75
2023/06/24 02:08:13;;;;;;;;;;;;;;;;;;1040729;28;19924;-73
2023/06/24 02:08:44;;;;;;;;;;;;;;;;;;1043139;28;19919;-74
2023/06/24 02:09:14;;;;;;;;;;;;;;;;;;1042002;28;19913;-73
2023/06/24 02:09:44;;;;;;;;;;;;;;;;;;1048804;28;19917;-75
2023/06/24 02:10:14;;;;;;;;;;;;;;;;;;1043108;28;20367;-75
2023/06/24 02:10:45;;;;;;;;;;;;;;;;;;1043360;28;20008;-78
2023/06/24 02:11:15;;;;;;;;;;;;;;;;;;1043576;28;19987;-77
2023/06/24 02:11:45;;;;;;;;;;;;;;;;;;1043867;28;19917;-77
2023/06/24 02:12:15;;;;;;;;;;;;;;;;;;1043449;28;19912;-74
2023/06/24 02:12:45;;;;;;;;;;;;;;;;;;1043544;28;19919;-75
2023/06/24 02:13:16;;;;;;;;;;;;;;;;;;1043675;28;19923;-74
2023/06/24 02:13:46;;;;;;;;;;;;;;;;;;1043703;28;19913;-73
2023/06/24 02:14:17;;;;;;;;;;;;;;;;;;1043272;28;19912;-74
2023/06/24 02:14:47;;;;;;;;;;;;;;;;;;1043613;28;19912;-73
2023/06/24 02:15:17;;;;;;;;;;;;;;;;;;1042996;28;19912;-74
2023/06/24 02:15:47;;;;;;;;;;;;;;;;;;1044143;28;19916;-73
2023/06/24 02:16:18;;;;;;;;;;;;;;;;;;1043680;28;19923;-72
2023/06/24 02:16:48;;;;;;;;;;;;;;;;;;1043209;28;19917;-72
2023/06/24 02:17:18;;;;;;;;;;;;;;;;;;1048268;28;20330;-72
2023/06/24 02:17:48;;;;;;;;;;;;;;;;;;1043207;28;19913;-72
2023/06/24 02:18:19;;;;;;;;;;;;;;;;;;1043860;28;19916;-72
2023/06/24 02:18:50;;;;;;;;;;;;;;;;;;1043412;28;19928;-72
2023/06/24 02:19:20;;;;;;;;;;;;;;;;;;1043902;28;20288;-73
2023/06/24 02:19:50;;;;;;;;;;;;;;;;;;1048268;28;19912;-74
2023/06/24 02:20:21;;;;;;;;;;;;;;;;;;1047416;28;19912;-73
2023/06/24 02:20:51;;;;;;;;;;;;;;;;;;1043345;28;19963;-74
2023/06/24 02:21:22;;;;;;;;;;;;;;;;;;1043643;28;19928;-73
2023/06/24 02:21:52;;;;;;;;;;;;;;;;;;1039457;28;20423;-72
2023/06/24 02:22:22;;;;;;;;;;;;;;;;;;1041786;28;19963;-72
2023/06/24 02:22:53;;;;;;;;;;;;;;;;;;1043399;28;19967;-75
2023/06/24 02:23:23;;;;;;;;;;;;;;;;;;1043824;28;20012;-74
2023/06/24 02:23:53;;;;;;;;;;;;;;;;;;1047819;28;20007;-75
2023/06/24 02:24:23;;;;;;;;;;;;;;;;;;1043225;28;19913;-74
2023/06/24 02:24:54;;;;;;;;;;;;;;;;;;1043077;28;19967;-73
2023/06/24 02:25:24;;;;;;;;;;;;;;;;;;1043751;28;20050;-73
2023/06/24 02:25:54;;;;;;;;;;;;;;;;;;1043644;28;19925;-74
2023/06/24 02:26:25;;;;;;;;;;;;;;;;;;1047721;28;19912;-73
2023/06/24 02:26:55;;;;;;;;;;;;;;;;;;1041608;28;19947;-72
2023/06/24 02:27:26;;;;;;;;;;;;;;;;;;1043223;28;20321;-73
2023/06/24 02:27:56;;;;;;;;;;;;;;;;;;1043309;28;19971;-74
2023/06/24 02:28:26;;;;;;;;;;;;;;;;;;1042970;28;19972;-74
2023/06/24 02:28:56;;;;;;;;;;;;;;;;;;1042469;28;19995;-74
2023/06/24 02:29:27;;;;;;;;;;;;;;;;;;1048585;28;19972;-74
2023/06/24 02:29:57;;;;;;;;;;;;;;;;;;1044182;28;20346;-74
2023/06/24 02:30:28;;;;;;;;;;;;;;;;;;1040073;28;19978;-75
2023/06/24 02:30:58;;;;;;;;;;;;;;;;;;1041516;28;20369;-75
2023/06/24 02:31:28;;;;;;;;;;;;;;;;;;1042093;28;19944;-74
2023/06/24 02:31:58;;;;;;;;;;;;;;;;;;1043777;28;19913;-74
2023/06/24 02:32:29;;;;;;;;;;;;;;;;;;1044073;28;20331;-74
2023/06/24 02:32:59;;;;;;;;;;;;;;;;;;1038132;28;19963;-74
2023/06/24 02:33:29;;;;;;;;;;;;;;;;;;1040599;28;19917;-74
2023/06/24 02:33:59;;;;;;;;;;;;;;;;;;1044820;28;20004;-75
2023/06/24 02:34:29;;;;;;;;;;;;;;;;;;1044584;28;19936;-74
2023/06/24 02:35:00;;;;;;;;;;;;;;;;;;1048099;28;20010;-74
2023/06/24 02:35:30;;;;;;;;;;;;;;;;;;1046824;28;20010;-74
2023/06/24 02:36:00;;;;;;;;;;;;;;;;;;1046897;28;19967;-73
2023/06/24 02:36:30;;;;;;;;;;;;;;;;;;1045409;28;19983;-74
2023/06/24 02:37:01;;;;;;;;;;;;;;;;;;1043099;28;20712;-72
2023/06/24 02:37:31;;;;;;;;;;;;;;;;;;1044911;28;19952;-75
2023/06/24 02:38:03;;;;;;;;;;;;;;;;;;1040231;28;19917;-75
2023/06/24 02:38:33;;;;;;;;;;;;;;;;;;1044476;28;19931;-75
2023/06/24 02:39:03;;;;;;;;;;;;;;;;;;1038511;28;19928;-74
2023/06/24 02:39:34;;;;;;;;;;;;;;;;;;1040148;28;19917;-76
2023/06/24 02:40:05;;;;;;;;;;;;;;;;;;1037718;28;19971;-75
2023/06/24 02:40:35;;;;;;;;;;;;;;;;;;1038824;28;20403;-76
2023/06/24 02:41:06;;;;;;;;;;;;;;;;;;1040727;28;20027;-76
2023/06/24 02:41:36;;;;;;;;;;;;;;;;;;1038055;28;19913;-76
2023/06/24 02:42:06;;;;;;;;;;;;;;;;;;1039360;28;19956;-75
2023/06/24 02:42:37;;;;;;;;;;;;;;;;;;1037655;28;19914;-76
2023/06/24 02:43:07;;;;;;;;;;;;;;;;;;1035236;28;19943;-76
2023/06/24 02:43:37;;;;;;;;;;;;;;;;;;1031971;28;19918;-79
2023/06/24 02:44:07;;;;;;;;;;;;;;;;;;1036087;28;20064;-76
2023/06/24 02:44:38;;;;;;;;;;;;;;;;;;1041065;28;20100;-78
2023/06/24 02:45:08;;;;;;;;;;;;;;;;;;1040137;28;19956;-77
2023/06/24 02:45:38;;;;;;;;;;;;;;;;;;1043608;28;19920;-77
2023/06/24 02:46:08;;;;;;;;;;;;;;;;;;1042510;28;19963;-79
2023/06/24 02:46:39;;;;;;;;;;;;;;;;;;1043854;28;20389;-76
2023/06/24 02:47:09;;;;;;;;;;;;;;;;;;1044757;28;19913;-75
2023/06/24 02:47:39;;;;;;;;;;;;;;;;;;1044120;28;20421;-76
2023/06/24 02:48:10;;;;;;;;;;;;;;;;;;1044343;28;19971;-78
2023/06/24 02:48:40;;;;;;;;;;;;;;;;;;1048670;28;20011;-76
2023/06/24 02:49:10;;;;;;;;;;;;;;;;;;1048960;28;19916;-76
2023/06/24 02:49:41;;;;;;;;;;;;;;;;;;1049538;28;19913;-76
2023/06/24 02:50:11;;;;;;;;;;;;;;;;;;1048891;28;19919;-75
2023/06/24 02:50:43;;;;;;;;;;;;;;;;;;1048851;28;19912;-75
2023/06/24 02:51:13;;;;;;;;;;;;;;;;;;1047582;28;20007;-75
2023/06/24 02:51:44;;;;;;;;;;;;;;;;;;1048617;28;19913;-75
2023/06/24 02:52:14;;;;;;;;;;;;;;;;;;1049097;28;20007;-76
2023/06/24 02:52:44;;;;;;;;;;;;;;;;;;1044259;28;20007;-75
2023/06/24 02:53:15;;;;;;;;;;;;;;;;;;1044328;28;19912;-75
2023/06/24 02:53:45;;;;;;;;;;;;;;;;;;1043887;28;20067;-75
2023/06/24 02:54:15;;;;;;;;;;;;;;;;;;1044486;28;20099;-75
2023/06/24 02:54:45;;;;;;;;;;;;;;;;;;1044275;28;20011;-76
2023/06/24 02:55:16;;;;;;;;;;;;;;;;;;1043943;28;21274;-77
2023/06/24 02:55:46;;;;;;;;;;;;;;;;;;1045004;28;20826;-75
2023/06/24 02:56:20;;;;;;;;;;;;;;;;;;1038910;28;19921;-75
2023/06/24 02:56:50;;;;;;;;;;;;;;;;;;1044134;28;20004;-75
2023/06/24 02:57:21;;;;;;;;;;;;;;;;;;1044541;28;20288;-76
2023/06/24 02:57:51;;;;;;;;;;;;;;;;;;1044136;28;19966;-75
2023/06/24 02:58:21;;;;;;;;;;;;;;;;;;1045181;28;19946;-76
2023/06/24 02:58:52;;;;;;;;;;;;;;;;;;1048480;28;20421;-76
2023/06/24 02:59:22;;;;;;;;;;;;;;;;;;1044747;28;20369;-76
2023/06/24 02:59:52;;;;;;;;;;;;;;;;;;1044596;28;19962;-76
2023/06/24 03:00:23;;;;;;;;;;;;;;;;;;1040021;28;19917;-75
2023/06/24 03:00:53;;;;;;;;;;;;;;;;;;1040208;28;19913;-74
2023/06/24 03:01:25;;;;;;;;;;;;;;;;;;1041065;28;19985;-77
2023/06/24 03:01:55;;;;;;;;;;;;;;;;;;1040736;28;19913;-77
2023/06/24 03:02:26;;;;;;;;;;;;;;;;;;1044390;28;19912;-76
2023/06/24 03:02:56;;;;;;;;;;;;;;;;;;1040202;28;19928;-76
2023/06/24 03:03:26;;;;;;;;;;;;;;;;;;1044512;28;19912;-77
2023/06/24 03:03:57;;;;;;;;;;;;;;;;;;1045450;28;20411;-76
2023/06/24 03:04:27;;;;;;;;;;;;;;;;;;1043875;28;20380;-76
2023/06/24 03:04:58;;;;;;;;;;;;;;;;;;1040315;28;20352;-77
2023/06/24 03:05:28;;;;;;;;;;;;;;;;;;1039670;28;19913;-81
2023/06/24 03:05:58;;;;;;;;;;;;;;;;;;1039997;28;19925;-80
2023/06/24 03:06:29;;;;;;;;;;;;;;;;;;1040596;28;20407;-81
2023/06/24 03:06:59;;;;;;;;;;;;;;;;;;1040923;28;19919;-80
2023/06/24 03:07:30;;;;;;;;;;;;;;;;;;1040506;28;20304;-78
2023/06/24 03:08:00;;;;;;;;;;;;;;;;;;1037348;28;19917;-76
2023/06/24 03:08:30;;;;;;;;;;;;;;;;;;1039457;28;19913;-76
2023/06/24 03:09:02;;;;;;;;;;;;;;;;;;1043906;28;19920;-77
2023/06/24 03:09:33;;;;;;;;;;;;;;;;;;1045309;28;20365;-76
2023/06/24 03:10:04;;;;;;;;;;;;;;;;;;1043975;28;19951;-77
2023/06/24 03:10:35;;;;;;;;;;;;;;;;;;1038497;28;19928;-76
2023/06/24 03:11:05;;;;;;;;;;;;;;;;;;1040194;28;19952;-77
2023/06/24 03:11:35;;;;;;;;;;;;;;;;;;1038876;28;19917;-76
2023/06/24 03:12:05;;;;;;;;;;;;;;;;;;1038917;28;19925;-76
2023/06/24 03:12:36;;;;;;;;;;;;;;;;;;1039773;28;20475;-75
2023/06/24 03:13:06;;;;;;;;;;;;;;;;;;1038787;28;19917;-75
2023/06/24 03:13:36;;;;;;;;;;;;;;;;;;1038360;28;19931;-77
2023/06/24 03:14:06;;;;;;;;;;;;;;;;;;1042871;28;19913;-77
2023/06/24 03:14:37;;;;;;;;;;;;;;;;;;1043501;28;19917;-77
2023/06/24 03:15:09;;;;;;;;;;;;;;;;;;1047841;28;19923;-76
2023/06/24 03:15:39;;;;;;;;;;;;;;;;;;1043670;28;19917;-78
2023/06/24 03:16:12;;;;;;;;;;;;;;;;;;1041870;28;19948;-77
2023/06/24 03:16:42;;;;;;;;;;;;;;;;;;1042188;28;20385;-77
2023/06/24 03:17:12;;;;;;;;;;;;;;;;;;1039622;28;19983;-77
2023/06/24 03:17:43;;;;;;;;;;;;;;;;;;1042846;28;19971;-76
2023/06/24 03:18:13;;;;;;;;;;;;;;;;;;1043014;28;19917;-78
2023/06/24 03:18:43;;;;;;;;;;;;;;;;;;1043045;28;20376;-77
2023/06/24 03:19:13;;;;;;;;;;;;;;;;;;1044189;28;19916;-76
2023/06/24 03:19:44;;;;;;;;;;;;;;;;;;1042576;28;19931;-76
2023/06/24 03:20:14;;;;;;;;;;;;;;;;;;1040019;28;19919;-76
2023/06/24 03:20:45;;;;;;;;;;;;;;;;;;1039961;28;19913;-76
2023/06/24 03:21:15;;;;;;;;;;;;;;;;;;1041107;28;19917;-75
2023/06/24 03:21:46;;;;;;;;;;;;;;;;;;1044788;28;19921;-76
2023/06/24 03:22:17;;;;;;;;;;;;;;;;;;1047467;28;20385;-76
2023/06/24 03:22:47;;;;;;;;;;;;;;;;;;1043982;28;19912;-76
2023/06/24 03:23:17;;;;;;;;;;;;;;;;;;1042036;28;19920;-76
2023/06/24 03:23:47;;;;;;;;;;;;;;;;;;1041738;28;19917;-76
2023/06/24 03:24:18;;;;;;;;;;;;;;;;;;1041183;28;19926;-76
2023/06/24 03:24:49;;;;;;;;;;;;;;;;;;1043943;28;19952;-76
2023/06/24 03:25:19;;;;;;;;;;;;;;;;;;1039432;28;19940;-76
2023/06/24 03:25:49;;;;;;;;;;;;;;;;;;1044250;28;19913;-75
2023/06/24 03:26:20;;;;;;;;;;;;;;;;;;1044226;28;19913;-75
2023/06/24 03:26:56;;;;;;;;;;;;;;;;;;1044792;28;19913;-76
2023/06/24 03:27:26;;;;;;;;;;;;;;;;;;1043101;28;20030;-76
2023/06/24 03:27:56;;;;;;;;;;;;;;;;;;1043623;28;19912;-76
2023/06/24 03:28:27;;;;;;;;;;;;;;;;;;1038401;28;19952;-75
2023/06/24 03:28:57;;;;;;;;;;;;;;;;;;1035852;28;19924;-76